sensor_id;sensor_type;location;lat;lon;timestamp;P1;durP1;ratioP1;P2;durP2;ratioP2
41921;SDS011;27609;51.002;5.354;2022-09-20T00:00:44;7.50;;;2.50;;
41921;SDS011;27609;51.002;5.354;2022-09-20T00:03:12;5.85;;;2.47;;
41921;SDS011;27609;51.002;5.354;2022-09-20T00:05:40;6.07;;;2.38;;
41921;SDS011;27609;51.002;5.354;2022-09-20T00:08:10;7.63;;;2.70;;
41921;SDS011;27609;51.002;5.354;2022-09-20T00:10:39;7.63;;;2.63;;
41921;SDS011;27609;51.002;5.354;2022-09-20T00:13:06;5.55;;;2.25;;
41921;SDS011;27609;51.002;5.354;2022-09-20T00:15:38;3.95;;;2.33;;
41921;SDS011;27609;51.002;5.354;2022-09-20T00:18:08;3.58;;;2.30;;
41921;SDS011;27609;51.002;5.354;2022-09-20T00:20:34;7.53;;;2.42;;
41921;SDS011;27609;51.002;5.354;2022-09-20T00:23:00;5.00;;;2.00;;
41921;SDS011;27609;51.002;5.354;2022-09-20T00:25:25;8.48;;;2.17;;
41921;SDS011;27609;51.002;5.354;2022-09-20T00:27:51;4.43;;;2.20;;
41921;SDS011;27609;51.002;5.354;2022-09-20T00:30:17;6.78;;;3.33;;
41921;SDS011;27609;51.002;5.354;2022-09-20T00:32:43;6.65;;;2.50;;
41921;SDS011;27609;51.002;5.354;2022-09-20T00:35:09;7.88;;;2.55;;
41921;SDS011;27609;51.002;5.354;2022-09-20T00:37:41;7.40;;;2.97;;
41921;SDS011;27609;51.002;5.354;2022-09-20T00:40:09;15.93;;;3.05;;
41921;SDS011;27609;51.002;5.354;2022-09-20T00:42:37;7.22;;;2.90;;
41921;SDS011;27609;51.002;5.354;2022-09-20T00:45:09;10.00;;;2.72;;
41921;SDS011;27609;51.002;5.354;2022-09-20T00:48:26;4.00;;;2.55;;
41921;SDS011;27609;51.002;5.354;2022-09-20T00:50:35;8.82;;;2.88;;
41921;SDS011;27609;51.002;5.354;2022-09-20T00:55:55;7.53;;;2.50;;
41921;SDS011;27609;51.002;5.354;2022-09-20T00:58:37;11.27;;;3.20;;
41921;SDS011;27609;51.002;5.354;2022-09-20T01:01:07;6.55;;;2.65;;
41921;SDS011;27609;51.002;5.354;2022-09-20T01:03:33;6.53;;;2.95;;
41921;SDS011;27609;51.002;5.354;2022-09-20T01:06:02;8.52;;;2.85;;
41921;SDS011;27609;51.002;5.354;2022-09-20T01:08:32;6.25;;;2.70;;
41921;SDS011;27609;51.002;5.354;2022-09-20T01:10:59;9.35;;;2.80;;
41921;SDS011;27609;51.002;5.354;2022-09-20T01:13:26;5.72;;;2.50;;
41921;SDS011;27609;51.002;5.354;2022-09-20T01:15:51;8.10;;;3.00;;
41921;SDS011;27609;51.002;5.354;2022-09-20T01:18:18;12.75;;;3.28;;
41921;SDS011;27609;51.002;5.354;2022-09-20T01:20:45;5.80;;;3.38;;
41921;SDS011;27609;51.002;5.354;2022-09-20T01:32:01;5.22;;;2.58;;
41921;SDS011;27609;51.002;5.354;2022-09-20T01:34:31;7.47;;;3.33;;
41921;SDS011;27609;51.002;5.354;2022-09-20T01:39:33;10.18;;;2.97;;
41921;SDS011;27609;51.002;5.354;2022-09-20T01:42:10;9.45;;;3.60;;
41921;SDS011;27609;51.002;5.354;2022-09-20T01:47:39;9.38;;;3.40;;
41921;SDS011;27609;51.002;5.354;2022-09-20T01:50:28;5.07;;;3.17;;
41921;SDS011;27609;51.002;5.354;2022-09-20T01:55:42;6.13;;;3.10;;
41921;SDS011;27609;51.002;5.354;2022-09-20T02:07:06;6.30;;;3.72;;
41921;SDS011;27609;51.002;5.354;2022-09-20T02:09:59;10.50;;;3.83;;
41921;SDS011;27609;51.002;5.354;2022-09-20T02:12:35;9.30;;;3.95;;
41921;SDS011;27609;51.002;5.354;2022-09-20T02:23:30;7.25;;;3.53;;
41921;SDS011;27609;51.002;5.354;2022-09-20T02:26:16;11.13;;;3.78;;
41921;SDS011;27609;51.002;5.354;2022-09-20T02:28:58;13.57;;;3.70;;
41921;SDS011;27609;51.002;5.354;2022-09-20T02:42:25;5.55;;;2.97;;
41921;SDS011;27609;51.002;5.354;2022-09-20T02:45:26;15.23;;;3.50;;
41921;SDS011;27609;51.002;5.354;2022-09-20T02:47:55;9.48;;;3.50;;
41921;SDS011;27609;51.002;5.354;2022-09-20T02:50:39;10.77;;;3.00;;
41921;SDS011;27609;51.002;5.354;2022-09-20T02:58:49;7.82;;;2.55;;
41921;SDS011;27609;51.002;5.354;2022-09-20T03:01:49;13.02;;;3.13;;
41921;SDS011;27609;51.002;5.354;2022-09-20T03:04:52;7.28;;;2.78;;
41921;SDS011;27609;51.002;5.354;2022-09-20T03:10:06;6.13;;;2.40;;
41921;SDS011;27609;51.002;5.354;2022-09-20T03:21:51;6.72;;;2.28;;
41921;SDS011;27609;51.002;5.354;2022-09-20T03:38:26;4.55;;;2.10;;
41921;SDS011;27609;51.002;5.354;2022-09-20T03:46:21;6.60;;;1.73;;
41921;SDS011;27609;51.002;5.354;2022-09-20T03:51:47;6.63;;;2.22;;
41921;SDS011;27609;51.002;5.354;2022-09-20T03:57:13;2.90;;;1.73;;
41921;SDS011;27609;51.002;5.354;2022-09-20T04:13:33;7.70;;;1.70;;
41921;SDS011;27609;51.002;5.354;2022-09-20T04:18:50;5.25;;;1.90;;
41921;SDS011;27609;51.002;5.354;2022-09-20T04:21:34;10.15;;;2.03;;
41921;SDS011;27609;51.002;5.354;2022-09-20T04:29:51;7.30;;;1.90;;
41921;SDS011;27609;51.002;5.354;2022-09-20T04:32:59;7.75;;;2.38;;
41921;SDS011;27609;51.002;5.354;2022-09-20T04:35:39;4.82;;;2.83;;
41921;SDS011;27609;51.002;5.354;2022-09-20T04:38:42;11.68;;;2.85;;
41921;SDS011;27609;51.002;5.354;2022-09-20T04:41:17;12.07;;;2.40;;
41921;SDS011;27609;51.002;5.354;2022-09-20T05:30:24;13.43;;;4.93;;
41921;SDS011;27609;51.002;5.354;2022-09-20T05:33:24;17.83;;;5.32;;
41921;SDS011;27609;51.002;5.354;2022-09-20T05:41:27;7.53;;;4.55;;
41921;SDS011;27609;51.002;5.354;2022-09-20T05:59:36;16.08;;;5.90;;
41921;SDS011;27609;51.002;5.354;2022-09-20T06:07:42;16.45;;;5.72;;
41921;SDS011;27609;51.002;5.354;2022-09-20T06:10:32;13.73;;;5.22;;
41921;SDS011;27609;51.002;5.354;2022-09-20T06:13:03;14.57;;;5.90;;
41921;SDS011;27609;51.002;5.354;2022-09-20T06:16:05;12.63;;;5.72;;
41921;SDS011;27609;51.002;5.354;2022-09-20T06:18:54;16.00;;;6.22;;
41921;SDS011;27609;51.002;5.354;2022-09-20T06:21:39;11.05;;;5.30;;
41921;SDS011;27609;51.002;5.354;2022-09-20T06:27:07;14.32;;;6.15;;
41921;SDS011;27609;51.002;5.354;2022-09-20T06:29:39;10.88;;;5.28;;
41921;SDS011;27609;51.002;5.354;2022-09-20T06:32:14;10.80;;;5.13;;
41921;SDS011;27609;51.002;5.354;2022-09-20T06:34:41;12.00;;;5.47;;
41921;SDS011;27609;51.002;5.354;2022-09-20T06:43:30;13.13;;;5.03;;
41921;SDS011;27609;51.002;5.354;2022-09-20T06:45:56;15.48;;;5.30;;
41921;SDS011;27609;51.002;5.354;2022-09-20T06:48:22;8.45;;;5.13;;
41921;SDS011;27609;51.002;5.354;2022-09-20T06:50:49;7.20;;;4.78;;
41921;SDS011;27609;51.002;5.354;2022-09-20T06:53:23;11.57;;;5.20;;
41921;SDS011;27609;51.002;5.354;2022-09-20T06:55:54;7.57;;;4.43;;
41921;SDS011;27609;51.002;5.354;2022-09-20T06:58:20;10.88;;;4.75;;
41921;SDS011;27609;51.002;5.354;2022-09-20T07:00:46;11.27;;;4.55;;
41921;SDS011;27609;51.002;5.354;2022-09-20T07:03:12;19.70;;;4.68;;
41921;SDS011;27609;51.002;5.354;2022-09-20T07:05:37;7.50;;;5.47;;
41921;SDS011;27609;51.002;5.354;2022-09-20T07:08:04;8.27;;;3.85;;
41921;SDS011;27609;51.002;5.354;2022-09-20T07:10:29;14.45;;;4.80;;
41921;SDS011;27609;51.002;5.354;2022-09-20T07:12:58;9.80;;;4.40;;
41921;SDS011;27609;51.002;5.354;2022-09-20T07:15:26;10.23;;;4.38;;
41921;SDS011;27609;51.002;5.354;2022-09-20T07:17:52;13.10;;;4.85;;
41921;SDS011;27609;51.002;5.354;2022-09-20T07:20:18;10.07;;;4.93;;
41921;SDS011;27609;51.002;5.354;2022-09-20T07:22:45;11.05;;;4.30;;
41921;SDS011;27609;51.002;5.354;2022-09-20T07:25:10;9.48;;;3.90;;
41921;SDS011;27609;51.002;5.354;2022-09-20T07:27:36;15.27;;;3.95;;
41921;SDS011;27609;51.002;5.354;2022-09-20T07:30:03;12.60;;;4.47;;
41921;SDS011;27609;51.002;5.354;2022-09-20T07:32:29;9.38;;;4.75;;
41921;SDS011;27609;51.002;5.354;2022-09-20T07:34:55;7.75;;;3.88;;
41921;SDS011;27609;51.002;5.354;2022-09-20T07:37:21;8.13;;;4.07;;
41921;SDS011;27609;51.002;5.354;2022-09-20T07:39:47;8.07;;;4.10;;
41921;SDS011;27609;51.002;5.354;2022-09-20T07:42:13;10.07;;;3.90;;
41921;SDS011;27609;51.002;5.354;2022-09-20T07:44:38;13.50;;;5.30;;
41921;SDS011;27609;51.002;5.354;2022-09-20T07:47:08;6.47;;;3.90;;
41921;SDS011;27609;51.002;5.354;2022-09-20T07:52:03;9.13;;;4.35;;
41921;SDS011;27609;51.002;5.354;2022-09-20T07:54:29;7.30;;;3.95;;
41921;SDS011;27609;51.002;5.354;2022-09-20T07:56:54;9.27;;;4.35;;
41921;SDS011;27609;51.002;5.354;2022-09-20T07:59:20;8.55;;;4.60;;
41921;SDS011;27609;51.002;5.354;2022-09-20T08:01:46;9.55;;;4.85;;
41921;SDS011;27609;51.002;5.354;2022-09-20T08:04:12;7.38;;;4.00;;
41921;SDS011;27609;51.002;5.354;2022-09-20T08:06:39;10.35;;;5.25;;
41921;SDS011;27609;51.002;5.354;2022-09-20T08:09:06;7.05;;;3.72;;
41921;SDS011;27609;51.002;5.354;2022-09-20T08:11:33;8.40;;;3.28;;
41921;SDS011;27609;51.002;5.354;2022-09-20T08:14:00;9.13;;;3.30;;
41921;SDS011;27609;51.002;5.354;2022-09-20T08:16:26;7.38;;;3.15;;
41921;SDS011;27609;51.002;5.354;2022-09-20T08:18:54;5.00;;;2.47;;
41921;SDS011;27609;51.002;5.354;2022-09-20T08:21:23;7.07;;;2.40;;
41921;SDS011;27609;51.002;5.354;2022-09-20T08:23:50;8.63;;;2.30;;
41921;SDS011;27609;51.002;5.354;2022-09-20T08:26:17;6.65;;;1.92;;
41921;SDS011;27609;51.002;5.354;2022-09-20T08:28:45;5.70;;;2.80;;
41921;SDS011;27609;51.002;5.354;2022-09-20T08:31:13;2.92;;;2.10;;
41921;SDS011;27609;51.002;5.354;2022-09-20T08:33:39;3.97;;;1.90;;
41921;SDS011;27609;51.002;5.354;2022-09-20T08:36:07;6.00;;;1.85;;
41921;SDS011;27609;51.002;5.354;2022-09-20T08:38:35;5.57;;;1.97;;
41921;SDS011;27609;51.002;5.354;2022-09-20T08:41:06;4.78;;;1.85;;
41921;SDS011;27609;51.002;5.354;2022-09-20T08:43:37;3.83;;;1.60;;
41921;SDS011;27609;51.002;5.354;2022-09-20T08:46:12;5.30;;;1.92;;
41921;SDS011;27609;51.002;5.354;2022-09-20T08:48:40;6.47;;;2.00;;
41921;SDS011;27609;51.002;5.354;2022-09-20T08:51:10;5.50;;;1.73;;
41921;SDS011;27609;51.002;5.354;2022-09-20T08:53:47;6.45;;;1.83;;
41921;SDS011;27609;51.002;5.354;2022-09-20T08:56:17;2.90;;;1.15;;
41921;SDS011;27609;51.002;5.354;2022-09-20T08:58:44;6.07;;;1.48;;
41921;SDS011;27609;51.002;5.354;2022-09-20T09:01:13;4.05;;;1.38;;
41921;SDS011;27609;51.002;5.354;2022-09-20T09:03:44;7.78;;;2.08;;
41921;SDS011;27609;51.002;5.354;2022-09-20T09:06:11;6.57;;;1.65;;
41921;SDS011;27609;51.002;5.354;2022-09-20T09:08:41;6.97;;;1.33;;
41921;SDS011;27609;51.002;5.354;2022-09-20T09:11:12;5.38;;;1.50;;
41921;SDS011;27609;51.002;5.354;2022-09-20T09:16:16;5.80;;;1.67;;
41921;SDS011;27609;51.002;5.354;2022-09-20T09:18:44;6.70;;;2.05;;
41921;SDS011;27609;51.002;5.354;2022-09-20T09:21:18;3.00;;;1.33;;
41921;SDS011;27609;51.002;5.354;2022-09-20T09:26:25;6.55;;;2.10;;
41921;SDS011;27609;51.002;5.354;2022-09-20T09:29:08;5.47;;;1.92;;
41921;SDS011;27609;51.002;5.354;2022-09-20T09:31:41;5.68;;;1.45;;
41921;SDS011;27609;51.002;5.354;2022-09-20T09:36:59;5.10;;;1.63;;
41921;SDS011;27609;51.002;5.354;2022-09-20T09:39:32;5.18;;;1.73;;
41921;SDS011;27609;51.002;5.354;2022-09-20T09:41:59;3.75;;;1.70;;
41921;SDS011;27609;51.002;5.354;2022-09-20T09:44:44;4.03;;;2.08;;
41921;SDS011;27609;51.002;5.354;2022-09-20T09:47:26;5.40;;;1.98;;
41921;SDS011;27609;51.002;5.354;2022-09-20T09:49:56;7.43;;;2.97;;
41921;SDS011;27609;51.002;5.354;2022-09-20T09:52:25;7.13;;;2.63;;
41921;SDS011;27609;51.002;5.354;2022-09-20T09:54:57;5.05;;;1.70;;
41921;SDS011;27609;51.002;5.354;2022-09-20T09:57:40;4.10;;;1.60;;
41921;SDS011;27609;51.002;5.354;2022-09-20T10:00:18;3.53;;;1.23;;
41921;SDS011;27609;51.002;5.354;2022-09-20T10:08:29;4.55;;;1.50;;
41921;SDS011;27609;51.002;5.354;2022-09-20T10:19:38;4.13;;;1.17;;
41921;SDS011;27609;51.002;5.354;2022-09-20T10:30:42;5.38;;;1.00;;
41921;SDS011;27609;51.002;5.354;2022-09-20T10:33:51;5.47;;;1.23;;
41921;SDS011;27609;51.002;5.354;2022-09-20T10:39:23;6.07;;;1.00;;
41921;SDS011;27609;51.002;5.354;2022-09-20T10:47:55;4.65;;;1.10;;
41921;SDS011;27609;51.002;5.354;2022-09-20T10:50:42;4.13;;;1.00;;
41921;SDS011;27609;51.002;5.354;2022-09-20T10:56:42;4.00;;;1.00;;
41921;SDS011;27609;51.002;5.354;2022-09-20T10:59:23;2.72;;;1.38;;
41921;SDS011;27609;51.002;5.354;2022-09-20T11:10:21;7.00;;;0.95;;
41921;SDS011;27609;51.002;5.354;2022-09-20T11:13:03;2.95;;;0.63;;
41921;SDS011;27609;51.002;5.354;2022-09-20T11:15:44;3.85;;;0.82;;
41921;SDS011;27609;51.002;5.354;2022-09-20T11:26:52;1.45;;;0.73;;
41921;SDS011;27609;51.002;5.354;2022-09-20T11:32:01;4.18;;;1.20;;
41921;SDS011;27609;51.002;5.354;2022-09-20T11:34:53;4.13;;;1.20;;
41921;SDS011;27609;51.002;5.354;2022-09-20T11:37:32;2.42;;;0.60;;
41921;SDS011;27609;51.002;5.354;2022-09-20T11:40:12;4.43;;;1.10;;
41921;SDS011;27609;51.002;5.354;2022-09-20T11:42:46;3.95;;;0.88;;
41921;SDS011;27609;51.002;5.354;2022-09-20T11:45:14;2.10;;;0.95;;
41921;SDS011;27609;51.002;5.354;2022-09-20T11:47:43;5.95;;;0.88;;
41921;SDS011;27609;51.002;5.354;2022-09-20T11:55:46;5.13;;;1.17;;
41921;SDS011;27609;51.002;5.354;2022-09-20T11:58:18;5.60;;;1.02;;
41921;SDS011;27609;51.002;5.354;2022-09-20T12:00:47;2.92;;;0.90;;
41921;SDS011;27609;51.002;5.354;2022-09-20T12:03:23;4.47;;;1.10;;
41921;SDS011;27609;51.002;5.354;2022-09-20T12:05:57;3.72;;;0.77;;
41921;SDS011;27609;51.002;5.354;2022-09-20T12:08:26;3.20;;;0.90;;
41921;SDS011;27609;51.002;5.354;2022-09-20T12:10:59;3.40;;;0.80;;
41921;SDS011;27609;51.002;5.354;2022-09-20T12:13:28;3.17;;;0.80;;
41921;SDS011;27609;51.002;5.354;2022-09-20T12:16:15;7.22;;;1.30;;
41921;SDS011;27609;51.002;5.354;2022-09-20T12:19:03;2.70;;;0.80;;
41921;SDS011;27609;51.002;5.354;2022-09-20T12:21:48;7.18;;;1.00;;
41921;SDS011;27609;51.002;5.354;2022-09-20T12:24:35;4.30;;;0.73;;
41921;SDS011;27609;51.002;5.354;2022-09-20T12:27:18;12.05;;;1.00;;
41921;SDS011;27609;51.002;5.354;2022-09-20T12:30:05;7.03;;;1.05;;
41921;SDS011;27609;51.002;5.354;2022-09-20T12:32:45;4.28;;;0.80;;
41921;SDS011;27609;51.002;5.354;2022-09-20T12:43:32;4.82;;;1.13;;
41921;SDS011;27609;51.002;5.354;2022-09-20T12:46:01;5.65;;;1.20;;
41921;SDS011;27609;51.002;5.354;2022-09-20T12:48:28;10.02;;;1.42;;
41921;SDS011;27609;51.002;5.354;2022-09-20T12:51:03;5.78;;;1.63;;
41921;SDS011;27609;51.002;5.354;2022-09-20T12:54:03;3.15;;;1.02;;
41921;SDS011;27609;51.002;5.354;2022-09-20T12:59:00;2.53;;;1.10;;
41921;SDS011;27609;51.002;5.354;2022-09-20T13:01:30;3.60;;;1.10;;
41921;SDS011;27609;51.002;5.354;2022-09-20T13:07:28;1.77;;;1.08;;
41921;SDS011;27609;51.002;5.354;2022-09-20T13:10:13;5.45;;;1.30;;
41921;SDS011;27609;51.002;5.354;2022-09-20T13:12:45;6.20;;;2.08;;
41921;SDS011;27609;51.002;5.354;2022-09-20T13:15:15;4.15;;;1.20;;
41921;SDS011;27609;51.002;5.354;2022-09-20T13:17:44;3.63;;;1.17;;
41921;SDS011;27609;51.002;5.354;2022-09-20T13:20:17;3.15;;;1.38;;
41921;SDS011;27609;51.002;5.354;2022-09-20T13:22:53;5.47;;;1.05;;
41921;SDS011;27609;51.002;5.354;2022-09-20T13:25:20;3.55;;;1.27;;
41921;SDS011;27609;51.002;5.354;2022-09-20T13:27:49;7.88;;;1.00;;
41921;SDS011;27609;51.002;5.354;2022-09-20T13:30:33;3.72;;;1.05;;
41921;SDS011;27609;51.002;5.354;2022-09-20T13:35:49;3.10;;;1.17;;
41921;SDS011;27609;51.002;5.354;2022-09-20T13:38:18;2.58;;;1.02;;
41921;SDS011;27609;51.002;5.354;2022-09-20T13:40:48;4.97;;;1.08;;
41921;SDS011;27609;51.002;5.354;2022-09-20T13:43:18;4.07;;;1.00;;
41921;SDS011;27609;51.002;5.354;2022-09-20T13:45:59;5.97;;;1.70;;
41921;SDS011;27609;51.002;5.354;2022-09-20T13:48:31;5.57;;;1.13;;
41921;SDS011;27609;51.002;5.354;2022-09-20T13:50:57;4.00;;;1.25;;
41921;SDS011;27609;51.002;5.354;2022-09-20T13:53:24;6.15;;;1.30;;
41921;SDS011;27609;51.002;5.354;2022-09-20T13:55:51;4.75;;;0.90;;
41921;SDS011;27609;51.002;5.354;2022-09-20T13:58:27;4.53;;;1.20;;
41921;SDS011;27609;51.002;5.354;2022-09-20T14:01:01;4.07;;;1.30;;
41921;SDS011;27609;51.002;5.354;2022-09-20T14:03:29;4.78;;;1.45;;
41921;SDS011;27609;51.002;5.354;2022-09-20T14:05:58;2.92;;;1.55;;
41921;SDS011;27609;51.002;5.354;2022-09-20T14:11:15;6.13;;;1.48;;
41921;SDS011;27609;51.002;5.354;2022-09-20T14:13:50;4.78;;;1.50;;
41921;SDS011;27609;51.002;5.354;2022-09-20T14:16:19;6.30;;;1.88;;
41921;SDS011;27609;51.002;5.354;2022-09-20T14:18:47;6.25;;;1.98;;
41921;SDS011;27609;51.002;5.354;2022-09-20T14:21:24;4.82;;;1.25;;
41921;SDS011;27609;51.002;5.354;2022-09-20T14:28:44;5.03;;;1.45;;
41921;SDS011;27609;51.002;5.354;2022-09-20T14:31:29;5.22;;;1.60;;
41921;SDS011;27609;51.002;5.354;2022-09-20T14:33:59;7.60;;;1.83;;
41921;SDS011;27609;51.002;5.354;2022-09-20T14:36:27;6.25;;;1.75;;
41921;SDS011;27609;51.002;5.354;2022-09-20T14:39:03;3.72;;;1.60;;
41921;SDS011;27609;51.002;5.354;2022-09-20T14:41:36;6.68;;;1.83;;
41921;SDS011;27609;51.002;5.354;2022-09-20T14:44:05;8.43;;;1.58;;
41921;SDS011;27609;51.002;5.354;2022-09-20T14:46:44;6.90;;;1.87;;
41921;SDS011;27609;51.002;5.354;2022-09-20T14:51:47;3.25;;;1.60;;
41921;SDS011;27609;51.002;5.354;2022-09-20T14:54:21;6.43;;;1.80;;
41921;SDS011;27609;51.002;5.354;2022-09-20T14:56:55;7.32;;;1.92;;
41921;SDS011;27609;51.002;5.354;2022-09-20T14:59:23;2.25;;;1.60;;
41921;SDS011;27609;51.002;5.354;2022-09-20T15:02:07;3.40;;;1.60;;
41921;SDS011;27609;51.002;5.354;2022-09-20T15:04:39;4.55;;;1.60;;
41921;SDS011;27609;51.002;5.354;2022-09-20T15:07:15;4.18;;;1.48;;
41921;SDS011;27609;51.002;5.354;2022-09-20T15:09:42;4.07;;;2.03;;
41921;SDS011;27609;51.002;5.354;2022-09-20T15:12:13;6.20;;;1.83;;
41921;SDS011;27609;51.002;5.354;2022-09-20T15:14:40;2.45;;;1.38;;
41921;SDS011;27609;51.002;5.354;2022-09-20T15:17:09;6.63;;;1.50;;
41921;SDS011;27609;51.002;5.354;2022-09-20T15:19:40;6.03;;;1.95;;
41921;SDS011;27609;51.002;5.354;2022-09-20T15:22:07;5.45;;;1.50;;
41921;SDS011;27609;51.002;5.354;2022-09-20T15:24:34;5.72;;;1.75;;
41921;SDS011;27609;51.002;5.354;2022-09-20T15:26:59;5.60;;;1.77;;
41921;SDS011;27609;51.002;5.354;2022-09-20T15:29:25;6.60;;;4.15;;
41921;SDS011;27609;51.002;5.354;2022-09-20T15:31:51;5.05;;;2.38;;
41921;SDS011;27609;51.002;5.354;2022-09-20T15:34:17;14.10;;;7.97;;
41921;SDS011;27609;51.002;5.354;2022-09-20T15:36:43;8.30;;;3.17;;
41921;SDS011;27609;51.002;5.354;2022-09-20T15:39:09;11.82;;;5.47;;
41921;SDS011;27609;51.002;5.354;2022-09-20T15:41:35;9.93;;;1.77;;
41921;SDS011;27609;51.002;5.354;2022-09-20T15:44:04;4.00;;;1.75;;
41921;SDS011;27609;51.002;5.354;2022-09-20T15:46:30;9.30;;;4.23;;
41921;SDS011;27609;51.002;5.354;2022-09-20T15:48:58;4.95;;;1.20;;
41921;SDS011;27609;51.002;5.354;2022-09-20T15:51:26;6.10;;;2.03;;
41921;SDS011;27609;51.002;5.354;2022-09-20T15:53:55;8.68;;;1.70;;
41921;SDS011;27609;51.002;5.354;2022-09-20T15:56:29;5.60;;;2.25;;
41921;SDS011;27609;51.002;5.354;2022-09-20T15:58:57;5.72;;;1.95;;
41921;SDS011;27609;51.002;5.354;2022-09-20T16:01:25;5.80;;;1.40;;
41921;SDS011;27609;51.002;5.354;2022-09-20T16:03:53;5.60;;;2.10;;
41921;SDS011;27609;51.002;5.354;2022-09-20T16:06:19;16.77;;;8.52;;
41921;SDS011;27609;51.002;5.354;2022-09-20T16:08:45;9.85;;;7.50;;
41921;SDS011;27609;51.002;5.354;2022-09-20T16:11:12;9.15;;;5.90;;
41921;SDS011;27609;51.002;5.354;2022-09-20T16:13:39;4.97;;;2.60;;
41921;SDS011;27609;51.002;5.354;2022-09-20T16:16:05;7.63;;;1.60;;
41921;SDS011;27609;51.002;5.354;2022-09-20T16:18:34;5.00;;;1.85;;
41921;SDS011;27609;51.002;5.354;2022-09-20T16:21:19;9.30;;;1.55;;
41921;SDS011;27609;51.002;5.354;2022-09-20T16:23:55;4.32;;;1.23;;
41921;SDS011;27609;51.002;5.354;2022-09-20T16:26:22;4.88;;;1.73;;
41921;SDS011;27609;51.002;5.354;2022-09-20T16:28:50;3.65;;;1.60;;
41921;SDS011;27609;51.002;5.354;2022-09-20T16:31:30;5.97;;;1.38;;
41921;SDS011;27609;51.002;5.354;2022-09-20T16:33:57;3.45;;;1.40;;
41921;SDS011;27609;51.002;5.354;2022-09-20T16:36:24;7.93;;;1.58;;
41921;SDS011;27609;51.002;5.354;2022-09-20T16:38:50;7.35;;;1.50;;
41921;SDS011;27609;51.002;5.354;2022-09-20T16:41:19;6.05;;;1.67;;
41921;SDS011;27609;51.002;5.354;2022-09-20T16:43:45;10.98;;;1.80;;
41921;SDS011;27609;51.002;5.354;2022-09-20T16:46:11;4.18;;;1.30;;
41921;SDS011;27609;51.002;5.354;2022-09-20T16:48:38;10.73;;;2.03;;
41921;SDS011;27609;51.002;5.354;2022-09-20T16:51:04;3.63;;;1.67;;
41921;SDS011;27609;51.002;5.354;2022-09-20T16:53:31;4.93;;;1.30;;
41921;SDS011;27609;51.002;5.354;2022-09-20T16:55:56;4.28;;;1.20;;
41921;SDS011;27609;51.002;5.354;2022-09-20T16:58:26;3.22;;;1.10;;
41921;SDS011;27609;51.002;5.354;2022-09-20T17:00:59;4.97;;;1.52;;
41921;SDS011;27609;51.002;5.354;2022-09-20T17:03:29;3.72;;;1.45;;
41921;SDS011;27609;51.002;5.354;2022-09-20T17:06:04;7.57;;;1.50;;
41921;SDS011;27609;51.002;5.354;2022-09-20T17:08:30;4.20;;;1.08;;
41921;SDS011;27609;51.002;5.354;2022-09-20T17:11:03;3.38;;;1.02;;
41921;SDS011;27609;51.002;5.354;2022-09-20T17:13:32;6.88;;;1.58;;
41921;SDS011;27609;51.002;5.354;2022-09-20T17:16:08;5.40;;;1.48;;
41921;SDS011;27609;51.002;5.354;2022-09-20T17:18:35;4.45;;;1.55;;
41921;SDS011;27609;51.002;5.354;2022-09-20T17:21:06;8.25;;;1.73;;
41921;SDS011;27609;51.002;5.354;2022-09-20T17:23:33;4.95;;;1.90;;
41921;SDS011;27609;51.002;5.354;2022-09-20T17:26:00;5.30;;;2.85;;
41921;SDS011;27609;51.002;5.354;2022-09-20T17:28:39;6.80;;;2.30;;
41921;SDS011;27609;51.002;5.354;2022-09-20T17:31:10;6.80;;;2.70;;
41921;SDS011;27609;51.002;5.354;2022-09-20T17:33:38;5.53;;;2.33;;
41921;SDS011;27609;51.002;5.354;2022-09-20T17:36:05;8.90;;;2.33;;
41921;SDS011;27609;51.002;5.354;2022-09-20T17:38:32;6.38;;;2.30;;
41921;SDS011;27609;51.002;5.354;2022-09-20T17:43:28;7.93;;;4.68;;
41921;SDS011;27609;51.002;5.354;2022-09-20T17:46:02;10.68;;;5.13;;
41921;SDS011;27609;51.002;5.354;2022-09-20T17:48:29;8.52;;;5.78;;
41921;SDS011;27609;51.002;5.354;2022-09-20T17:50:55;10.20;;;4.57;;
41921;SDS011;27609;51.002;5.354;2022-09-20T17:53:21;10.23;;;4.60;;
41921;SDS011;27609;51.002;5.354;2022-09-20T17:55:56;10.82;;;4.00;;
41921;SDS011;27609;51.002;5.354;2022-09-20T17:58:22;12.90;;;4.70;;
41921;SDS011;27609;51.002;5.354;2022-09-20T18:00:49;10.85;;;4.07;;
41921;SDS011;27609;51.002;5.354;2022-09-20T18:03:16;10.25;;;4.30;;
41921;SDS011;27609;51.002;5.354;2022-09-20T18:05:42;5.68;;;3.72;;
41921;SDS011;27609;51.002;5.354;2022-09-20T18:08:07;9.75;;;4.20;;
41921;SDS011;27609;51.002;5.354;2022-09-20T18:10:33;11.82;;;4.75;;
41921;SDS011;27609;51.002;5.354;2022-09-20T18:13:00;8.65;;;3.90;;
41921;SDS011;27609;51.002;5.354;2022-09-20T18:15:26;7.35;;;4.97;;
41921;SDS011;27609;51.002;5.354;2022-09-20T18:17:51;10.55;;;6.10;;
41921;SDS011;27609;51.002;5.354;2022-09-20T18:20:17;27.50;;;11.55;;
41921;SDS011;27609;51.002;5.354;2022-09-20T18:22:46;17.58;;;9.65;;
41921;SDS011;27609;51.002;5.354;2022-09-20T18:25:12;13.32;;;8.68;;
41921;SDS011;27609;51.002;5.354;2022-09-20T18:27:38;13.05;;;7.43;;
41921;SDS011;27609;51.002;5.354;2022-09-20T18:30:04;14.50;;;5.85;;
41921;SDS011;27609;51.002;5.354;2022-09-20T18:32:30;18.15;;;6.32;;
41921;SDS011;27609;51.002;5.354;2022-09-20T18:34:56;7.00;;;4.57;;
41921;SDS011;27609;51.002;5.354;2022-09-20T18:37:22;10.63;;;4.72;;
41921;SDS011;27609;51.002;5.354;2022-09-20T18:39:47;13.75;;;5.05;;
41921;SDS011;27609;51.002;5.354;2022-09-20T18:42:13;9.73;;;4.63;;
41921;SDS011;27609;51.002;5.354;2022-09-20T18:44:39;8.88;;;4.10;;
41921;SDS011;27609;51.002;5.354;2022-09-20T18:47:07;5.78;;;3.90;;
41921;SDS011;27609;51.002;5.354;2022-09-20T18:49:33;6.47;;;4.32;;
41921;SDS011;27609;51.002;5.354;2022-09-20T18:51:59;10.23;;;4.70;;
41921;SDS011;27609;51.002;5.354;2022-09-20T18:54:25;8.60;;;4.75;;
41921;SDS011;27609;51.002;5.354;2022-09-20T18:56:57;8.73;;;4.40;;
41921;SDS011;27609;51.002;5.354;2022-09-20T18:59:24;9.40;;;4.78;;
41921;SDS011;27609;51.002;5.354;2022-09-20T19:05:15;12.55;;;4.88;;
41921;SDS011;27609;51.002;5.354;2022-09-20T19:08:09;7.28;;;3.58;;
41921;SDS011;27609;51.002;5.354;2022-09-20T19:10:50;9.63;;;4.68;;
41921;SDS011;27609;51.002;5.354;2022-09-20T19:26:47;12.60;;;6.45;;
41921;SDS011;27609;51.002;5.354;2022-09-20T19:29:16;13.48;;;6.90;;
41921;SDS011;27609;51.002;5.354;2022-09-20T19:31:45;9.45;;;6.25;;
41921;SDS011;27609;51.002;5.354;2022-09-20T19:34:23;8.45;;;6.68;;
41921;SDS011;27609;51.002;5.354;2022-09-20T19:42:29;15.57;;;7.17;;
41921;SDS011;27609;51.002;5.354;2022-09-20T19:50:28;10.85;;;7.00;;
41921;SDS011;27609;51.002;5.354;2022-09-20T19:53:10;15.40;;;7.13;;
41921;SDS011;27609;51.002;5.354;2022-09-20T19:55:42;11.75;;;7.00;;
41921;SDS011;27609;51.002;5.354;2022-09-20T20:00:37;12.48;;;6.35;;
41921;SDS011;27609;51.002;5.354;2022-09-20T20:03:04;11.30;;;6.18;;
41921;SDS011;27609;51.002;5.354;2022-09-20T20:05:30;14.05;;;6.53;;
41921;SDS011;27609;51.002;5.354;2022-09-20T20:16:03;12.80;;;8.13;;
41921;SDS011;27609;51.002;5.354;2022-09-20T20:21:15;12.60;;;6.95;;
41921;SDS011;27609;51.002;5.354;2022-09-20T20:26:31;12.57;;;7.50;;
41921;SDS011;27609;51.002;5.354;2022-09-20T20:28:57;13.52;;;7.20;;
41921;SDS011;27609;51.002;5.354;2022-09-20T20:31:24;15.45;;;7.93;;
41921;SDS011;27609;51.002;5.354;2022-09-20T20:33:49;14.98;;;7.20;;
41921;SDS011;27609;51.002;5.354;2022-09-20T20:36:15;13.07;;;7.30;;
41921;SDS011;27609;51.002;5.354;2022-09-20T20:38:41;9.85;;;6.93;;
41921;SDS011;27609;51.002;5.354;2022-09-20T20:41:16;15.85;;;6.70;;
41921;SDS011;27609;51.002;5.354;2022-09-20T20:43:43;12.55;;;7.55;;
41921;SDS011;27609;51.002;5.354;2022-09-20T20:46:11;16.13;;;7.85;;
41921;SDS011;27609;51.002;5.354;2022-09-20T20:48:43;12.20;;;8.00;;
41921;SDS011;27609;51.002;5.354;2022-09-20T20:51:11;16.15;;;8.02;;